Time;durP1;ratioP1;P1;durP2;ratioP2;P2;SDS_P1;SDS_P2;PMS_P1;PMS_P2;Temp;Humidity;BMP_temperature;BMP_pressure;BME280_temperature;BME280_humidity;BME280_pressure;Samples;Min_cycle;Max_cycle;Signal;HPM_P1;HPM_P2
2021/08/18 00:01:28;;;;;;;21.27;8.82;;;14.20;99.90;;;;;;5013595;28;20463;-81
2021/08/18 00:03:54;;;;;;;16.48;7.97;;;14.20;99.90;;;;;;5016651;28;20545;-81
2021/08/18 00:06:20;;;;;;;17.58;8.02;;;14.30;99.90;;;;;;5017696;28;20018;-81
2021/08/18 00:08:46;;;;;;;16.70;8.55;;;14.40;99.90;;;;;;5010018;28;20034;-82
2021/08/18 00:11:12;;;;;;;15.00;7.82;;;14.50;99.90;;;;;;5018221;28;20548;-82
2021/08/18 00:13:38;;;;;;;19.55;8.63;;;14.50;99.90;;;;;;5016514;28;20025;-81
2021/08/18 00:16:04;;;;;;;19.83;8.50;;;14.60;99.90;;;;;;5012299;28;20041;-82
2021/08/18 00:18:30;;;;;;;17.02;8.30;;;14.60;99.90;;;;;;5015058;28;20089;-82
2021/08/18 00:20:56;;;;;;;17.60;8.90;;;14.60;99.90;;;;;;5017301;28;20061;-81
2021/08/18 00:23:22;;;;;;;15.20;8.40;;;14.60;99.90;;;;;;5018063;28;20034;-81
2021/08/18 00:25:47;;;;;;;17.38;7.95;;;14.50;99.90;;;;;;5009665;28;20030;-81
2021/08/18 00:28:32;;;;;;;18.80;8.77;;;14.50;99.90;;;;;;5068752;22;20136;-87
2021/08/18 00:31:29;;;;;;;;;;;;;;;;;;;;;
2021/08/18 00:34:25;;;;;;;18.20;7.55;;;14.40;99.90;;;;;;5042072;28;20089;-88
2021/08/18 00:37:11;;;;;;;17.45;8.30;;;14.40;99.90;;;;;;5036206;28;20100;-87
2021/08/18 00:39:46;;;;;;;19.10;9.10;;;14.40;99.90;;;;;;5039879;28;20072;-89
2021/08/18 00:42:31;;;;;;;22.23;8.90;;;14.30;99.90;;;;;;5043304;28;20052;-89
2021/08/18 00:48:14;;;;;;;17.67;8.90;;;14.40;99.90;;;;;;5040977;28;20048;-87
2021/08/18 00:50:48;;;;;;;19.08;8.50;;;14.50;99.90;;;;;;5040204;28;20105;-87
2021/08/18 00:53:14;;;;;;;16.20;8.32;;;14.60;99.90;;;;;;5039359;28;20132;-87
2021/08/18 00:55:52;;;;;;;20.80;9.13;;;14.60;99.90;;;;;;5051277;28;20833;-87
2021/08/18 00:58:33;;;;;;;19.92;9.07;;;14.40;99.90;;;;;;5038294;28;20087;-88
2021/08/18 01:01:04;;;;;;;18.55;8.73;;;14.50;99.90;;;;;;5040319;28;20028;-88
2021/08/18 01:03:39;;;;;;;17.50;8.85;;;14.50;99.90;;;;;;5030759;28;20037;-87
2021/08/18 01:06:17;;;;;;;16.70;8.70;;;14.30;99.90;;;;;;5040828;28;20049;-88
2021/08/18 01:09:09;;;;;;;18.80;8.68;;;14.30;99.90;;;;;;5037804;28;20093;-87
2021/08/18 01:12:23;;;;;;;19.35;8.23;;;14.20;99.90;;;;;;5039705;28;20114;-87
2021/08/18 01:14:48;;;;;;;18.23;8.45;;;14.30;99.90;;;;;;5022127;28;20033;-88
2021/08/18 01:17:17;;;;;;;19.35;8.63;;;14.40;99.90;;;;;;5037350;28;20698;-88
2021/08/18 01:19:57;;;;;;;17.67;8.77;;;14.40;99.90;;;;;;5030095;28;20030;-88
2021/08/18 01:22:30;;;;;;;17.65;8.75;;;14.40;99.90;;;;;;5041149;28;20057;-88
2021/08/18 01:24:56;;;;;;;20.85;8.35;;;14.30;99.90;;;;;;5036542;28;20064;-88
2021/08/18 01:27:45;;;;;;;19.90;8.75;;;14.30;99.90;;;;;;5039657;28;20132;-88
2021/08/18 01:30:40;;;;;;;20.25;9.15;;;14.20;99.90;;;;;;5041303;28;20637;-87
2021/08/18 01:33:16;;;;;;;21.23;8.65;;;14.10;99.90;;;;;;5039267;28;20604;-87
2021/08/18 01:35:57;;;;;;;21.98;9.55;;;14.10;99.90;;;;;;5037534;28;20029;-87
2021/08/18 01:38:36;;;;;;;20.60;9.27;;;14.10;99.90;;;;;;5051110;28;20029;-87
2021/08/18 01:41:05;;;;;;;18.13;8.98;;;14.20;99.90;;;;;;5040548;28;20029;-87
2021/08/18 01:43:33;;;;;;;19.65;9.20;;;14.20;99.90;;;;;;5039932;28;20029;-88
2021/08/18 01:46:14;;;;;;;18.02;9.48;;;14.20;99.90;;;;;;5047580;28;20029;-88
2021/08/18 01:48:39;;;;;;;18.55;8.77;;;14.20;99.90;;;;;;5042280;28;20076;-88
2021/08/18 01:51:06;;;;;;;19.70;9.98;;;14.20;99.90;;;;;;5039539;28;20025;-88
2021/08/18 01:53:44;;;;;;;20.63;9.65;;;14.20;99.90;;;;;;5043308;28;20033;-87
2021/08/18 01:56:22;;;;;;;20.88;9.93;;;14.20;99.90;;;;;;5039986;28;20056;-86
2021/08/18 01:58:53;;;;;;;21.13;10.05;;;14.30;99.90;;;;;;5039915;28;20044;-88
2021/08/18 02:01:32;;;;;;;22.58;10.65;;;14.20;99.90;;;;;;5031500;28;20064;-88
2021/08/18 02:04:00;;;;;;;23.10;11.10;;;14.20;99.90;;;;;;5041424;28;20052;-88
2021/08/18 02:06:27;;;;;;;24.55;10.07;;;14.30;99.90;;;;;;5041786;28;20032;-88
2021/08/18 02:08:53;;;;;;;20.75;9.77;;;14.20;99.90;;;;;;5042035;28;20036;-88
2021/08/18 02:11:18;;;;;;;20.25;10.35;;;14.30;99.90;;;;;;5029560;28;20029;-87
2021/08/18 02:13:54;;;;;;;23.27;11.05;;;14.30;99.90;;;;;;5043070;28;20022;-88
2021/08/18 02:16:26;;;;;;;21.58;10.20;;;14.30;99.90;;;;;;5041282;28;20109;-88
2021/08/18 02:19:01;;;;;;;18.98;10.40;;;14.30;99.90;;;;;;5033519;28;20029;-88
2021/08/18 02:21:34;;;;;;;19.63;9.63;;;14.30;99.90;;;;;;5040480;28;20064;-88
2021/08/18 02:24:10;;;;;;;21.58;10.23;;;14.30;99.90;;;;;;5041135;28;20034;-89
2021/08/18 02:26:39;;;;;;;22.30;9.90;;;14.30;99.90;;;;;;5041812;28;20067;-88
2021/08/18 02:29:08;;;;;;;20.42;9.82;;;14.20;99.90;;;;;;5038208;28;20042;-88
2021/08/18 02:31:34;;;;;;;22.13;10.18;;;14.20;99.90;;;;;;5026682;28;20038;-88
2021/08/18 02:34:00;;;;;;;22.15;9.85;;;14.10;99.90;;;;;;5041364;28;20083;-88
2021/08/18 02:36:25;;;;;;;20.77;10.68;;;14.10;99.90;;;;;;5041345;28;20033;-88
2021/08/18 02:38:54;;;;;;;19.75;9.75;;;14.10;99.90;;;;;;5040209;28;20021;-89
2021/08/18 02:41:20;;;;;;;21.60;10.27;;;14.20;99.90;;;;;;5048875;28;20056;-89
2021/08/18 02:43:46;;;;;;;18.80;10.35;;;14.20;99.90;;;;;;5038941;28;20163;-88
2021/08/18 02:46:11;;;;;;;18.42;9.75;;;14.10;99.90;;;;;;5041115;28;20037;-88
2021/08/18 02:48:40;;;;;;;20.73;10.35;;;14.20;99.90;;;;;;5042686;28;20034;-87
2021/08/18 02:51:21;;;;;;;22.13;10.82;;;14.10;99.90;;;;;;5038035;28;20060;-88
2021/08/18 02:53:49;;;;;;;24.13;9.97;;;14.20;99.90;;;;;;5027616;28;20038;-88
2021/08/18 02:56:15;;;;;;;20.73;9.98;;;14.20;99.90;;;;;;5041262;28;20036;-88
2021/08/18 02:58:44;;;;;;;18.23;9.63;;;14.10;99.90;;;;;;5036440;28;20022;-88
2021/08/18 03:01:09;;;;;;;22.50;10.70;;;14.10;99.90;;;;;;5053712;28;20433;-88
2021/08/18 03:03:35;;;;;;;19.13;9.57;;;14.10;99.90;;;;;;5041537;28;20255;-88
2021/08/18 03:06:03;;;;;;;22.83;10.85;;;14.10;99.90;;;;;;5045360;28;20099;-88
2021/08/18 03:08:29;;;;;;;21.92;10.73;;;14.10;99.90;;;;;;5040898;28;20052;-88
2021/08/18 03:10:57;;;;;;;22.38;10.43;;;14.00;99.90;;;;;;5046731;28;20485;-88
2021/08/18 03:13:25;;;;;;;23.27;10.38;;;14.10;99.90;;;;;;5043917;28;20083;-88
2021/08/18 03:15:51;;;;;;;22.10;9.73;;;14.00;99.90;;;;;;5038366;28;20021;-88
2021/08/18 03:18:17;;;;;;;20.88;9.50;;;14.10;99.90;;;;;;5043515;28;20052;-88
2021/08/18 03:20:43;;;;;;;20.38;9.48;;;14.10;99.90;;;;;;5045806;28;20033;-88
2021/08/18 03:23:09;;;;;;;18.38;9.50;;;14.10;99.90;;;;;;5040362;28;20061;-88
2021/08/18 03:25:37;;;;;;;21.45;9.85;;;14.10;99.90;;;;;;5044110;28;20055;-87
2021/08/18 03:28:03;;;;;;;23.25;9.77;;;14.10;99.90;;;;;;5042888;28;20030;-88
2021/08/18 03:30:31;;;;;;;18.20;10.27;;;14.10;99.90;;;;;;5041731;28;20407;-88
2021/08/18 03:32:57;;;;;;;20.50;9.80;;;14.10;99.90;;;;;;5044773;28;20060;-87
2021/08/18 03:35:30;;;;;;;21.77;9.45;;;14.20;99.90;;;;;;5043085;28;20033;-88
2021/08/18 03:37:56;;;;;;;21.23;9.48;;;14.20;99.90;;;;;;5042644;28;20060;-88
2021/08/18 03:40:24;;;;;;;16.98;9.10;;;14.20;99.90;;;;;;5035238;28;20026;-88
2021/08/18 03:42:50;;;;;;;19.23;9.35;;;14.20;99.90;;;;;;5050546;28;20112;-88
2021/08/18 03:45:18;;;;;;;18.08;9.15;;;14.10;99.90;;;;;;5042927;28;20072;-88
2021/08/18 03:47:43;;;;;;;17.98;9.05;;;14.20;99.90;;;;;;5041167;28;20030;-88
2021/08/18 03:50:15;;;;;;;20.25;9.65;;;14.20;99.90;;;;;;5042261;28;20521;-88
2021/08/18 03:52:49;;;;;;;16.35;9.05;;;14.20;99.90;;;;;;5042172;28;20120;-88
2021/08/18 03:55:18;;;;;;;18.00;8.88;;;14.20;99.90;;;;;;5042864;28;20036;-88
2021/08/18 03:57:46;;;;;;;15.60;8.50;;;14.30;99.90;;;;;;5042184;28;20018;-88
2021/08/18 04:00:20;;;;;;;21.33;9.05;;;14.30;99.90;;;;;;5027885;28;20025;-88
2021/08/18 04:02:45;;;;;;;17.33;8.90;;;14.30;99.90;;;;;;5043081;28;20017;-88
2021/08/18 04:05:12;;;;;;;20.15;8.93;;;14.20;99.90;;;;;;5041555;28;20067;-88
2021/08/18 04:07:40;;;;;;;17.13;8.20;;;14.20;99.90;;;;;;5038406;28;20040;-88
2021/08/18 04:10:09;;;;;;;14.07;8.07;;;14.20;99.90;;;;;;5039135;28;20041;-88
2021/08/18 04:12:59;;;;;;;16.30;7.45;;;14.10;99.90;;;;;;5057998;28;20098;-88
2021/08/18 04:15:44;;;;;;;19.13;8.25;;;14.20;99.90;;;;;;5043902;28;20045;-89
2021/08/18 04:18:11;;;;;;;14.90;8.40;;;14.20;99.90;;;;;;5041852;28;20094;-88
2021/08/18 04:20:37;;;;;;;16.15;7.78;;;14.10;99.90;;;;;;5042739;28;20029;-88
2021/08/18 04:23:06;;;;;;;15.13;7.68;;;14.20;99.90;;;;;;5045427;28;20089;-88
2021/08/18 04:25:37;;;;;;;13.55;7.47;;;14.20;99.90;;;;;;5046464;28;20026;-87
2021/08/18 04:28:04;;;;;;;13.30;6.82;;;14.20;99.90;;;;;;5041530;28;20591;-88
2021/08/18 04:30:36;;;;;;;15.80;7.90;;;14.20;99.90;;;;;;5042882;28;20088;-88
2021/08/18 04:33:02;;;;;;;11.57;6.80;;;14.10;99.90;;;;;;5043483;28;20052;-87
2021/08/18 04:35:33;;;;;;;17.17;7.47;;;14.10;99.90;;;;;;5036929;28;20033;-88
2021/08/18 04:38:03;;;;;;;14.20;7.40;;;14.00;99.90;;;;;;5039123;28;20044;-88
2021/08/18 04:40:29;;;;;;;14.15;7.60;;;14.00;99.90;;;;;;5037767;28;20021;-87
2021/08/18 04:42:55;;;;;;;14.48;7.15;;;13.90;99.90;;;;;;5039578;28;20033;-87
2021/08/18 04:45:21;;;;;;;16.73;8.32;;;13.90;99.90;;;;;;5032359;28;20116;-87
2021/08/18 04:47:50;;;;;;;16.05;7.65;;;13.90;99.90;;;;;;5037827;28;20033;-88
2021/08/18 04:50:17;;;;;;;15.77;7.70;;;13.90;99.90;;;;;;5039569;28;20033;-88
2021/08/18 04:52:46;;;;;;;14.55;6.68;;;13.80;99.90;;;;;;5035819;28;20029;-88
2021/08/18 04:55:13;;;;;;;16.83;8.35;;;13.80;99.90;;;;;;5031800;28;20029;-88
2021/08/18 04:57:39;;;;;;;18.88;8.10;;;13.90;99.90;;;;;;5038266;28;20116;-88
2021/08/18 05:00:06;;;;;;;15.65;7.88;;;13.90;99.90;;;;;;5037967;28;20516;-88
2021/08/18 05:02:35;;;;;;;16.55;7.80;;;13.90;99.90;;;;;;5035861;28;20021;-87
2021/08/18 05:05:02;;;;;;;19.65;8.07;;;13.90;99.90;;;;;;5035926;28;20022;-88
2021/08/18 05:07:31;;;;;;;16.48;7.43;;;13.90;99.90;;;;;;5037987;28;20045;-88
2021/08/18 05:09:59;;;;;;;14.40;7.47;;;14.00;99.90;;;;;;5038313;28;20028;-88
2021/08/18 05:12:27;;;;;;;15.30;7.60;;;14.00;99.90;;;;;;5038105;28;20029;-88
2021/08/18 05:14:53;;;;;;;16.30;7.65;;;13.90;99.90;;;;;;5039861;28;20013;-88
2021/08/18 05:17:19;;;;;;;15.75;7.38;;;14.00;99.90;;;;;;5039505;28;20029;-88
2021/08/18 05:19:48;;;;;;;14.45;7.82;;;14.00;99.90;;;;;;5031803;28;20030;-88
2021/08/18 05:22:16;;;;;;;16.40;7.13;;;14.00;99.90;;;;;;5054346;28;20037;-88
2021/08/18 05:24:42;;;;;;;18.02;7.22;;;13.90;99.90;;;;;;5038906;28;20087;-87
2021/08/18 05:27:08;;;;;;;14.02;6.97;;;14.00;99.90;;;;;;5037219;28;20037;-88
2021/08/18 05:29:36;;;;;;;15.60;7.65;;;13.90;99.90;;;;;;5032378;28;20033;-87
2021/08/18 05:32:02;;;;;;;14.60;7.18;;;14.00;99.90;;;;;;5037043;28;20044;-87
2021/08/18 05:34:30;;;;;;;13.40;6.60;;;14.00;99.90;;;;;;5037448;28;20033;-87
2021/08/18 05:36:58;;;;;;;13.80;6.75;;;14.00;99.90;;;;;;5030238;28;20026;-87
2021/08/18 05:39:24;;;;;;;14.85;7.35;;;14.10;99.90;;;;;;5030112;28;20021;-87
2021/08/18 05:41:49;;;;;;;13.35;6.53;;;14.00;99.90;;;;;;5037379;28;20052;-88
2021/08/18 05:44:15;;;;;;;14.55;6.85;;;14.00;99.90;;;;;;5037876;28;20088;-89
2021/08/18 05:46:49;;;;;;;12.75;6.50;;;13.90;99.90;;;;;;5047225;28;20028;-88
2021/08/18 05:49:20;;;;;;;15.82;6.43;;;14.00;99.90;;;;;;5041357;28;20537;-88
2021/08/18 05:51:52;;;;;;;13.10;6.70;;;14.10;99.90;;;;;;5037450;28;20030;-88
2021/08/18 05:54:20;;;;;;;13.20;6.40;;;14.20;99.90;;;;;;5029753;28;20042;-89
2021/08/18 05:56:50;;;;;;;12.85;6.65;;;14.30;99.90;;;;;;5040028;28;20045;-88
2021/08/18 05:59:27;;;;;;;14.50;6.65;;;14.30;99.90;;;;;;5037083;28;20032;-88
2021/08/18 06:02:00;;;;;;;11.93;6.07;;;14.30;99.90;;;;;;5037823;28;20026;-88
2021/08/18 06:04:26;;;;;;;11.77;6.15;;;14.50;99.90;;;;;;5028154;28;20033;-88
2021/08/18 06:06:55;;;;;;;14.02;6.57;;;14.50;99.90;;;;;;5038104;28;20033;-88
2021/08/18 06:09:24;;;;;;;10.63;5.82;;;14.50;99.90;;;;;;5038027;28;20029;-88
2021/08/18 06:11:49;;;;;;;11.45;5.55;;;14.60;99.90;;;;;;5036395;28;20360;-88
2021/08/18 06:14:33;;;;;;;11.23;5.72;;;14.60;99.90;;;;;;5051478;28;20551;-89
2021/08/18 06:17:11;;;;;;;14.02;6.53;;;14.60;99.90;;;;;;5037986;28;20034;-87
2021/08/18 06:19:39;;;;;;;14.57;6.40;;;14.60;99.90;;;;;;5039155;28;20022;-88
2021/08/18 06:22:14;;;;;;;11.23;5.25;;;14.60;99.90;;;;;;5033821;28;20081;-88
2021/08/18 06:24:41;;;;;;;12.45;6.22;;;14.60;99.90;;;;;;5031628;28;20022;-88
2021/08/18 06:27:16;;;;;;;12.68;6.32;;;14.70;99.90;;;;;;5039676;28;20478;-89
2021/08/18 06:29:59;;;;;;;;;;;;;;;;;;;;;
2021/08/18 06:32:37;;;;;;;12.15;6.22;;;14.80;99.90;;;;;;5037768;28;20128;-88
2021/08/18 06:35:04;;;;;;;13.45;6.75;;;14.60;99.90;;;;;;5036224;28;20034;-88
2021/08/18 06:37:30;;;;;;;11.93;5.85;;;14.60;99.90;;;;;;5056833;28;20022;-89
2021/08/18 06:39:56;;;;;;;14.90;6.20;;;14.60;99.90;;;;;;5027036;28;20121;-88
2021/08/18 06:42:22;;;;;;;11.90;6.50;;;14.60;99.90;;;;;;5057377;28;20017;-88
2021/08/18 06:44:49;;;;;;;13.25;7.03;;;14.60;99.90;;;;;;5039416;28;20064;-89
2021/08/18 06:47:16;;;;;;;14.45;6.75;;;14.70;99.90;;;;;;5041120;28;20039;-89
2021/08/18 06:49:44;;;;;;;12.80;6.28;;;14.60;99.90;;;;;;5058642;28;20024;-89
2021/08/18 06:52:11;;;;;;;12.10;5.95;;;14.60;99.90;;;;;;5044458;28;20029;-89
2021/08/18 06:54:39;;;;;;;12.25;5.80;;;14.70;99.90;;;;;;5054254;28;20116;-89
2021/08/18 06:57:08;;;;;;;12.90;6.00;;;14.80;99.90;;;;;;5040740;28;20096;-89
2021/08/18 06:59:33;;;;;;;12.00;6.05;;;14.90;99.90;;;;;;5043829;28;20087;-89
2021/08/18 07:01:59;;;;;;;11.75;6.10;;;15.00;99.90;;;;;;5043934;28;20037;-89
2021/08/18 07:04:25;;;;;;;15.32;6.13;;;15.10;99.90;;;;;;5042987;28;20029;-89
2021/08/18 07:06:51;;;;;;;11.50;5.30;;;15.20;99.90;;;;;;5041771;28;20033;-89
2021/08/18 07:09:16;;;;;;;10.25;5.30;;;15.30;99.90;;;;;;5038059;28;20022;-88
2021/08/18 07:11:42;;;;;;;10.95;6.00;;;15.30;99.90;;;;;;5040879;28;20029;-90
2021/08/18 07:14:07;;;;;;;12.10;5.72;;;15.40;99.90;;;;;;5039778;28;20226;-88
2021/08/18 07:16:35;;;;;;;11.55;5.68;;;15.50;99.90;;;;;;5040551;28;20029;-89
2021/08/18 07:19:01;;;;;;;10.15;4.35;;;15.50;99.90;;;;;;5041676;28;20036;-89
2021/08/18 07:21:27;;;;;;;10.57;4.80;;;15.60;99.90;;;;;;5055648;28;20081;-88
2021/08/18 07:23:54;;;;;;;10.25;4.93;;;15.60;99.90;;;;;;5055414;28;20067;-88
2021/08/18 07:26:22;;;;;;;9.90;4.43;;;15.60;99.90;;;;;;5039172;28;20037;-86
2021/08/18 07:28:48;;;;;;;8.70;4.15;;;15.60;99.90;;;;;;5040594;28;20120;-86
2021/08/18 07:31:15;;;;;;;7.57;3.90;;;15.70;99.90;;;;;;5034526;28;20052;-86
2021/08/18 07:33:40;;;;;;;7.72;3.92;;;15.80;99.90;;;;;;5037599;28;20440;-87
2021/08/18 07:36:06;;;;;;;7.45;3.60;;;15.90;99.90;;;;;;5044004;28;20037;-89
2021/08/18 07:38:32;;;;;;;7.35;3.88;;;16.00;99.90;;;;;;5048816;28;20021;-89
2021/08/18 07:41:00;;;;;;;6.65;3.58;;;16.10;99.90;;;;;;5038268;28;20021;-89
2021/08/18 07:43:26;;;;;;;8.43;3.80;;;16.30;99.90;;;;;;5037159;28;20026;-90
2021/08/18 07:45:54;;;;;;;7.88;3.65;;;16.60;99.90;;;;;;5032503;28;20040;-88
2021/08/18 07:48:19;;;;;;;6.95;3.20;;;17.00;99.90;;;;;;5029510;28;20113;-90
2021/08/18 07:50:45;;;;;;;5.55;2.97;;;17.10;99.90;;;;;;5028128;28;20065;-90
2021/08/18 07:53:11;;;;;;;6.28;2.85;;;17.30;99.90;;;;;;5045967;28;20056;-90
2021/08/18 07:55:37;;;;;;;5.75;2.55;;;17.30;99.90;;;;;;5035672;28;20025;-89
2021/08/18 07:58:03;;;;;;;5.60;2.28;;;17.30;99.90;;;;;;5041802;28;20056;-87
2021/08/18 08:00:31;;;;;;;4.45;2.22;;;17.40;99.90;;;;;;5031590;28;20033;-87
2021/08/18 08:02:57;;;;;;;5.38;2.30;;;17.30;99.90;;;;;;5041883;28;20025;-85
2021/08/18 08:05:22;;;;;;;4.75;2.45;;;17.30;99.90;;;;;;5043563;28;20060;-86
2021/08/18 08:07:48;;;;;;;5.53;3.10;;;17.10;99.90;;;;;;5039106;28;20036;-85
2021/08/18 08:10:14;;;;;;;6.38;2.65;;;17.00;99.90;;;;;;5042714;28;20030;-85
2021/08/18 08:12:40;;;;;;;4.93;2.60;;;17.00;99.90;;;;;;5046619;28;20059;-85
2021/08/18 08:15:08;;;;;;;6.68;2.58;;;17.10;99.90;;;;;;5040794;28;20087;-83
2021/08/18 08:17:34;;;;;;;4.70;2.33;;;17.00;99.90;;;;;;5062357;28;20025;-84
2021/08/18 08:20:01;;;;;;;4.18;2.20;;;17.10;99.90;;;;;;5044385;28;20030;-86
2021/08/18 08:22:27;;;;;;;5.78;2.20;;;17.10;99.90;;;;;;5045021;28;20021;-85
2021/08/18 08:24:52;;;;;;;5.75;2.15;;;17.10;99.90;;;;;;5043556;28;20029;-85
2021/08/18 08:27:18;;;;;;;5.55;2.30;;;17.10;99.90;;;;;;5039583;28;20441;-85
2021/08/18 08:29:44;;;;;;;4.57;2.25;;;17.30;99.90;;;;;;5038874;28;20550;-85
2021/08/18 08:32:11;;;;;;;6.95;2.65;;;17.40;99.90;;;;;;5026496;28;20040;-85
2021/08/18 08:34:37;;;;;;;6.32;2.10;;;17.60;99.90;;;;;;5055323;28;20021;-86
2021/08/18 08:37:03;;;;;;;4.40;2.33;;;17.80;99.90;;;;;;5047652;28;20500;-87
2021/08/18 08:39:29;;;;;;;7.15;2.15;;;17.90;99.90;;;;;;5043320;28;20101;-88
2021/08/18 08:41:55;;;;;;;6.18;2.10;;;17.70;99.90;;;;;;5028836;28;20391;-88
2021/08/18 08:44:23;;;;;;;3.75;1.70;;;17.60;99.90;;;;;;5058677;28;20616;-89
2021/08/18 08:46:50;;;;;;;3.03;1.50;;;17.40;99.90;;;;;;5045858;28;20025;-88
2021/08/18 08:49:17;;;;;;;4.65;2.00;;;17.30;99.90;;;;;;5048604;28;20056;-87
2021/08/18 08:51:51;;;;;;;5.13;1.58;;;17.20;99.90;;;;;;5039449;28;20120;-85
2021/08/18 08:54:18;;;;;;;4.22;1.63;;;17.10;99.90;;;;;;5041137;28;20025;-86
2021/08/18 08:56:44;;;;;;;3.60;1.50;;;17.10;99.90;;;;;;5039594;28;20029;-86
2021/08/18 08:59:11;;;;;;;2.80;1.40;;;17.20;99.90;;;;;;5021546;28;20041;-86
2021/08/18 09:02:02;;;;;;;3.97;1.40;;;17.30;99.90;;;;;;5030932;28;20013;-86
2021/08/18 09:04:44;;;;;;;4.10;1.50;;;17.30;99.90;;;;;;5045235;28;20029;-86
2021/08/18 09:07:16;;;;;;;3.63;1.27;;;17.20;99.90;;;;;;5055052;28;20588;-86
2021/08/18 09:09:53;;;;;;;3.10;1.45;;;17.20;99.90;;;;;;5037965;28;20040;-86
2021/08/18 09:12:21;;;;;;;3.00;1.20;;;17.10;99.90;;;;;;5040930;28;20047;-88
2021/08/18 09:14:46;;;;;;;3.50;1.40;;;17.10;99.90;;;;;;5040912;28;20030;-86
2021/08/18 09:17:37;;;;;;;3.78;1.50;;;17.00;99.90;;;;;;5062345;23;20025;-83
2021/08/18 09:20:14;;;;;;;3.38;0.98;;;17.00;99.90;;;;;;5011616;28;20057;-83
2021/08/18 09:22:55;;;;;;;3.40;0.98;;;17.00;99.90;;;;;;5015091;28;20043;-82
2021/08/18 09:25:41;;;;;;;2.47;0.88;;;17.10;99.90;;;;;;5017638;28;20025;-82
2021/08/18 09:28:06;;;;;;;3.28;1.00;;;17.00;99.90;;;;;;5014632;28;20026;-83
2021/08/18 09:30:35;;;;;;;2.22;0.70;;;17.10;99.90;;;;;;5015283;28;20072;-82
2021/08/18 09:33:13;;;;;;;1.25;0.47;;;17.10;99.90;;;;;;5013557;28;20455;-82
2021/08/18 09:35:40;;;;;;;1.98;0.50;;;17.20;99.90;;;;;;5015388;28;20508;-83
2021/08/18 09:38:14;;;;;;;2.28;0.70;;;17.20;99.90;;;;;;5016282;28;20030;-83
2021/08/18 09:40:44;;;;;;;1.95;0.88;;;17.10;99.90;;;;;;5017123;28;20048;-83
2021/08/18 09:43:13;;;;;;;2.20;0.60;;;17.10;99.90;;;;;;5016533;28;20017;-84
2021/08/18 09:45:42;;;;;;;1.92;0.50;;;17.10;99.90;;;;;;5015404;28;20529;-83
2021/08/18 09:48:17;;;;;;;2.00;0.70;;;17.10;99.90;;;;;;5014686;28;20022;-83
2021/08/18 09:51:03;;;;;;;1.73;0.50;;;17.10;99.90;;;;;;5015680;28;20029;-83
2021/08/18 09:53:32;;;;;;;1.55;0.50;;;17.30;99.90;;;;;;5018980;28;20453;-83
2021/08/18 09:56:04;;;;;;;3.35;0.60;;;17.50;99.90;;;;;;5018665;28;20021;-83
2021/08/18 09:58:41;;;;;;;1.00;0.40;;;17.80;99.90;;;;;;5017917;28;20050;-82
2021/08/18 10:01:16;;;;;;;1.98;0.40;;;18.20;99.90;;;;;;5014204;28;20027;-83
2021/08/18 10:03:43;;;;;;;0.88;0.30;;;18.60;99.90;;;;;;5011842;28;20025;-82
2021/08/18 10:06:11;;;;;;;0.90;0.30;;;18.90;99.90;;;;;;5012943;28;20030;-84
2021/08/18 10:08:38;;;;;;;1.05;0.30;;;19.00;99.90;;;;;;5015048;28;20025;-83
2021/08/18 10:11:05;;;;;;;1.23;0.30;;;19.20;99.90;;;;;;5012840;28;20045;-84
2021/08/18 10:13:31;;;;;;;0.77;0.30;;;19.50;99.90;;;;;;5016012;28;20029;-84
2021/08/18 10:15:58;;;;;;;2.08;0.30;;;19.80;99.90;;;;;;5015063;28;20034;-83
2021/08/18 10:18:28;;;;;;;0.80;0.30;;;20.30;99.90;;;;;;5018116;28;20030;-83
2021/08/18 10:21:27;;;;;;;0.93;0.22;;;20.30;99.90;;;;;;5019612;28;20045;-84
2021/08/18 10:23:59;;;;;;;1.08;0.30;;;20.50;99.90;;;;;;5016662;28;20030;-85
2021/08/18 10:26:33;;;;;;;0.60;0.28;;;20.30;99.90;;;;;;5012673;28;20042;-85
2021/08/18 10:29:06;;;;;;;0.88;0.30;;;20.60;99.90;;;;;;5013968;28;20026;-85
2021/08/18 10:31:41;;;;;;;0.38;0.20;;;21.10;99.90;;;;;;5014561;28;20125;-84
2021/08/18 10:34:22;;;;;;;0.40;0.20;;;21.70;99.90;;;;;;5017905;28;20062;-83
2021/08/18 10:36:56;;;;;;;0.82;0.30;;;21.70;99.90;;;;;;5027032;28;20022;-82
2021/08/18 10:39:22;;;;;;;0.80;0.30;;;22.00;99.90;;;;;;5014267;28;20030;-81
2021/08/18 10:41:57;;;;;;;0.55;0.22;;;21.90;99.90;;;;;;5024659;28;20629;-84
2021/08/18 10:44:46;;;;;;;1.10;0.30;;;21.80;99.90;;;;;;5019940;28;20026;-83
2021/08/18 10:47:28;;;;;;;0.70;0.30;;;21.40;99.90;;;;;;5025444;28;20034;-82
2021/08/18 10:50:23;;;;;;;1.00;0.32;;;21.00;99.90;;;;;;5019343;28;20048;-82
2021/08/18 10:52:51;;;;;;;0.88;0.30;;;20.80;99.90;;;;;;5030157;28;20445;-83
2021/08/18 10:55:23;;;;;;;0.50;0.20;;;20.60;99.90;;;;;;5019379;28;20018;-83
2021/08/18 10:57:55;;;;;;;0.70;0.20;;;20.50;99.90;;;;;;5028470;28;20049;-83
2021/08/18 11:00:33;;;;;;;1.65;0.30;;;20.30;99.90;;;;;;5026178;28;20032;-83
2021/08/18 11:03:03;;;;;;;0.60;0.22;;;20.30;99.90;;;;;;5030081;28;20030;-83
2021/08/18 11:05:38;;;;;;;0.93;0.30;;;20.30;99.90;;;;;;5012076;28;20057;-83
2021/08/18 11:08:13;;;;;;;0.63;0.30;;;20.30;99.90;;;;;;4998884;28;20034;-82
2021/08/18 11:11:01;;;;;;;1.30;0.28;;;20.30;99.90;;;;;;5017765;28;20056;-83
2021/08/18 11:13:49;;;;;;;1.08;0.40;;;20.30;99.90;;;;;;5024644;28;20026;-83
2021/08/18 11:16:23;;;;;;;1.63;0.30;;;20.20;99.90;;;;;;5019829;28;20029;-81
2021/08/18 11:18:52;;;;;;;1.45;0.40;;;20.20;99.90;;;;;;5011672;28;20052;-81
2021/08/18 11:21:32;;;;;;;0.90;0.40;;;20.20;99.90;;;;;;5018422;28;20118;-82
2021/08/18 11:24:09;;;;;;;3.35;0.38;;;20.10;99.90;;;;;;5035929;28;20045;-82
2021/08/18 11:26:38;;;;;;;1.05;0.43;;;19.90;99.90;;;;;;5017248;28;20026;-82
2021/08/18 11:29:10;;;;;;;0.75;0.30;;;19.90;99.90;;;;;;5013125;28;20118;-83
2021/08/18 11:31:36;;;;;;;1.27;0.77;;;19.80;99.90;;;;;;5018729;28;20022;-82
2021/08/18 11:34:03;;;;;;;0.98;0.38;;;19.70;99.90;;;;;;5017955;28;20048;-82
2021/08/18 11:36:34;;;;;;;3.22;0.65;;;19.60;99.90;;;;;;5018312;28;20024;-83
2021/08/18 11:39:02;;;;;;;1.77;0.50;;;19.30;99.90;;;;;;5017594;28;20513;-83
2021/08/18 11:41:36;;;;;;;1.95;0.50;;;19.30;99.90;;;;;;5017923;28;20050;-83
2021/08/18 11:44:02;;;;;;;2.05;0.50;;;19.50;99.90;;;;;;5003548;28;20095;-83
2021/08/18 11:46:30;;;;;;;3.22;0.70;;;19.50;99.90;;;;;;5017804;28;20026;-84
2021/08/18 11:49:09;;;;;;;2.10;0.50;;;20.20;99.90;;;;;;5016669;28;20148;-82
2021/08/18 11:51:37;;;;;;;1.30;0.68;;;20.40;99.90;;;;;;5018080;28;20022;-83
2021/08/18 11:54:05;;;;;;;1.77;0.70;;;20.30;99.90;;;;;;5004001;28;20034;-83
2021/08/18 11:56:31;;;;;;;1.92;0.57;;;20.30;99.90;;;;;;5021299;28;20028;-82
2021/08/18 11:58:59;;;;;;;1.75;0.73;;;19.90;99.90;;;;;;5018593;28;20073;-83
2021/08/18 12:01:25;;;;;;;1.83;0.50;;;19.80;99.90;;;;;;5020953;28;20018;-81
2021/08/18 12:03:51;;;;;;;1.42;0.63;;;19.70;99.90;;;;;;5019108;28;20432;-83
2021/08/18 12:06:31;;;;;;;1.52;0.50;;;19.60;99.90;;;;;;5018791;28;20030;-82
2021/08/18 12:08:57;;;;;;;1.70;0.50;;;19.60;99.90;;;;;;5019520;28;20084;-82
2021/08/18 12:11:32;;;;;;;1.75;0.50;;;19.70;99.90;;;;;;5018706;28;20100;-83
2021/08/18 12:14:08;;;;;;;1.45;0.65;;;19.60;99.90;;;;;;5017657;28;20026;-82
2021/08/18 12:16:34;;;;;;;1.83;0.70;;;19.60;99.90;;;;;;5015538;28;20041;-83
2021/08/18 12:19:22;;;;;;;3.00;0.70;;;19.70;99.90;;;;;;5020230;28;20116;-84
2021/08/18 12:22:20;;;;;;;1.50;0.63;;;19.60;99.90;;;;;;5000995;28;20053;-83
2021/08/18 12:24:52;;;;;;;3.10;0.70;;;19.40;99.90;;;;;;5019720;28;20021;-82
2021/08/18 12:27:27;;;;;;;3.50;0.60;;;19.30;99.90;;;;;;5013326;28;20030;-82
2021/08/18 12:30:06;;;;;;;1.83;0.88;;;19.30;99.90;;;;;;5019321;28;20083;-82
2021/08/18 12:32:32;;;;;;;1.50;0.50;;;19.30;99.90;;;;;;5002877;28;20034;-82
2021/08/18 12:35:10;;;;;;;1.80;0.50;;;19.40;99.90;;;;;;4997964;28;20030;-82
2021/08/18 12:37:40;;;;;;;1.45;0.40;;;19.50;99.90;;;;;;4998463;28;20033;-82
2021/08/18 12:40:11;;;;;;;1.00;0.50;;;19.60;99.90;;;;;;4996315;28;20619;-83
2021/08/18 12:42:52;;;;;;;2.60;0.68;;;20.00;99.90;;;;;;5014076;28;20033;-82
2021/08/18 12:45:25;;;;;;;2.38;0.65;;;20.40;99.90;;;;;;5004025;28;20482;-84
2021/08/18 12:47:55;;;;;;;2.28;0.60;;;20.70;99.90;;;;;;5014470;28;20041;-83
2021/08/18 12:50:40;;;;;;;1.77;0.60;;;21.40;99.90;;;;;;5018871;28;20052;-84
2021/08/18 12:53:08;;;;;;;1.92;0.60;;;21.50;99.90;;;;;;5010370;28;20518;-84
2021/08/18 12:55:34;;;;;;;1.33;0.55;;;21.50;99.90;;;;;;5030003;28;20033;-83
2021/08/18 12:58:00;;;;;;;1.63;0.60;;;21.60;99.90;;;;;;5040612;28;20516;-83
2021/08/18 13:00:27;;;;;;;1.13;0.45;;;21.40;99.90;;;;;;5029062;28;20375;-83
2021/08/18 13:02:53;;;;;;;1.10;0.40;;;21.20;99.90;;;;;;5030090;28;20021;-83
2021/08/18 13:05:19;;;;;;;0.93;0.40;;;21.00;99.90;;;;;;5034055;28;20108;-83